sensor_id;sensor_type;location;lat;lon;timestamp;P1;durP1;ratioP1;P2;durP2;ratioP2
78404;SDS011;67689;43.592;1.418;2023-03-23T00:01:47;6.97;;;1.95;;
78404;SDS011;67689;43.592;1.418;2023-03-23T00:04:15;6.75;;;1.80;;
78404;SDS011;67689;43.592;1.418;2023-03-23T00:06:41;4.90;;;1.88;;
78404;SDS011;67689;43.592;1.418;2023-03-23T00:09:06;6.82;;;2.17;;
78404;SDS011;67689;43.592;1.418;2023-03-23T00:11:33;5.60;;;2.00;;
78404;SDS011;67689;43.592;1.418;2023-03-23T00:13:59;6.07;;;2.22;;
78404;SDS011;67689;43.592;1.418;2023-03-23T00:16:33;6.10;;;2.00;;
78404;SDS011;67689;43.592;1.418;2023-03-23T00:19:02;6.10;;;2.25;;
78404;SDS011;67689;43.592;1.418;2023-03-23T00:21:30;6.25;;;1.88;;
78404;SDS011;67689;43.592;1.418;2023-03-23T00:26:35;4.72;;;1.88;;
78404;SDS011;67689;43.592;1.418;2023-03-23T00:29:04;7.30;;;3.03;;
78404;SDS011;67689;43.592;1.418;2023-03-23T00:31:30;6.30;;;2.10;;
78404;SDS011;67689;43.592;1.418;2023-03-23T00:33:58;7.75;;;2.15;;
78404;SDS011;67689;43.592;1.418;2023-03-23T00:36:26;6.65;;;2.38;;
78404;SDS011;67689;43.592;1.418;2023-03-23T00:38:53;5.35;;;2.20;;
78404;SDS011;67689;43.592;1.418;2023-03-23T00:41:18;7.30;;;2.05;;
78404;SDS011;67689;43.592;1.418;2023-03-23T00:43:43;7.60;;;2.25;;
78404;SDS011;67689;43.592;1.418;2023-03-23T00:46:09;7.07;;;2.50;;
78404;SDS011;67689;43.592;1.418;2023-03-23T00:48:37;6.22;;;2.20;;
78404;SDS011;67689;43.592;1.418;2023-03-23T00:51:10;7.32;;;2.42;;
78404;SDS011;67689;43.592;1.418;2023-03-23T00:53:36;6.95;;;2.50;;
78404;SDS011;67689;43.592;1.418;2023-03-23T00:56:02;6.43;;;2.58;;
78404;SDS011;67689;43.592;1.418;2023-03-23T00:58:27;11.70;;;3.15;;
78404;SDS011;67689;43.592;1.418;2023-03-23T01:00:52;6.45;;;2.40;;
78404;SDS011;67689;43.592;1.418;2023-03-23T01:03:18;8.07;;;2.78;;
78404;SDS011;67689;43.592;1.418;2023-03-23T01:05:44;8.50;;;2.97;;
78404;SDS011;67689;43.592;1.418;2023-03-23T01:08:12;9.50;;;2.90;;
78404;SDS011;67689;43.592;1.418;2023-03-23T01:10:38;6.35;;;2.85;;
78404;SDS011;67689;43.592;1.418;2023-03-23T01:13:04;8.88;;;3.20;;
78404;SDS011;67689;43.592;1.418;2023-03-23T01:15:30;8.13;;;2.63;;
78404;SDS011;67689;43.592;1.418;2023-03-23T01:17:56;7.97;;;3.17;;
78404;SDS011;67689;43.592;1.418;2023-03-23T01:20:22;7.47;;;3.38;;
78404;SDS011;67689;43.592;1.418;2023-03-23T01:22:48;9.32;;;3.38;;
78404;SDS011;67689;43.592;1.418;2023-03-23T01:25:13;9.63;;;3.97;;
78404;SDS011;67689;43.592;1.418;2023-03-23T01:27:39;11.05;;;4.63;;
78404;SDS011;67689;43.592;1.418;2023-03-23T01:30:05;10.05;;;4.30;;
78404;SDS011;67689;43.592;1.418;2023-03-23T01:32:32;12.63;;;4.40;;
78404;SDS011;67689;43.592;1.418;2023-03-23T01:34:58;9.98;;;4.28;;
78404;SDS011;67689;43.592;1.418;2023-03-23T01:37:23;10.18;;;4.80;;
78404;SDS011;67689;43.592;1.418;2023-03-23T01:39:52;10.10;;;4.78;;
78404;SDS011;67689;43.592;1.418;2023-03-23T01:42:21;11.32;;;5.38;;
78404;SDS011;67689;43.592;1.418;2023-03-23T01:47:15;16.00;;;6.18;;
78404;SDS011;67689;43.592;1.418;2023-03-23T01:49:42;13.13;;;6.63;;
78404;SDS011;67689;43.592;1.418;2023-03-23T01:52:20;15.15;;;6.57;;
78404;SDS011;67689;43.592;1.418;2023-03-23T01:54:49;12.43;;;6.45;;
78404;SDS011;67689;43.592;1.418;2023-03-23T01:57:16;16.58;;;6.95;;
78404;SDS011;67689;43.592;1.418;2023-03-23T01:59:43;14.77;;;6.95;;
78404;SDS011;67689;43.592;1.418;2023-03-23T02:02:12;15.43;;;6.95;;
78404;SDS011;67689;43.592;1.418;2023-03-23T02:04:37;14.75;;;7.10;;
78404;SDS011;67689;43.592;1.418;2023-03-23T02:07:03;19.45;;;7.70;;
78404;SDS011;67689;43.592;1.418;2023-03-23T02:09:29;17.65;;;7.85;;
78404;SDS011;67689;43.592;1.418;2023-03-23T02:11:55;16.63;;;7.97;;
78404;SDS011;67689;43.592;1.418;2023-03-23T02:14:21;16.63;;;7.78;;
78404;SDS011;67689;43.592;1.418;2023-03-23T02:16:55;16.42;;;7.85;;
78404;SDS011;67689;43.592;1.418;2023-03-23T02:24:53;17.92;;;7.70;;
78404;SDS011;67689;43.592;1.418;2023-03-23T02:28:04;15.68;;;8.25;;
78404;SDS011;67689;43.592;1.418;2023-03-23T02:41:33;20.88;;;8.02;;
78404;SDS011;67689;43.592;1.418;2023-03-23T02:44:03;14.88;;;7.57;;
78404;SDS011;67689;43.592;1.418;2023-03-23T02:46:29;19.73;;;9.18;;
78404;SDS011;67689;43.592;1.418;2023-03-23T02:48:55;22.10;;;8.93;;
78404;SDS011;67689;43.592;1.418;2023-03-23T02:51:22;19.13;;;8.50;;
78404;SDS011;67689;43.592;1.418;2023-03-23T02:53:48;16.92;;;8.13;;
78404;SDS011;67689;43.592;1.418;2023-03-23T02:56:15;19.73;;;8.18;;
78404;SDS011;67689;43.592;1.418;2023-03-23T02:58:41;15.57;;;7.53;;
78404;SDS011;67689;43.592;1.418;2023-03-23T03:03:51;15.00;;;7.63;;
78404;SDS011;67689;43.592;1.418;2023-03-23T03:12:09;14.70;;;7.68;;
78404;SDS011;67689;43.592;1.418;2023-03-23T03:14:45;16.98;;;7.57;;
78404;SDS011;67689;43.592;1.418;2023-03-23T03:17:24;21.23;;;8.38;;
78404;SDS011;67689;43.592;1.418;2023-03-23T03:19:52;15.55;;;7.57;;
78404;SDS011;67689;43.592;1.418;2023-03-23T03:22:21;17.08;;;7.85;;
78404;SDS011;67689;43.592;1.418;2023-03-23T03:24:47;16.55;;;7.78;;
78404;SDS011;67689;43.592;1.418;2023-03-23T03:27:14;20.25;;;8.32;;
78404;SDS011;67689;43.592;1.418;2023-03-23T03:29:45;16.80;;;7.95;;
78404;SDS011;67689;43.592;1.418;2023-03-23T03:32:15;18.13;;;7.40;;
78404;SDS011;67689;43.592;1.418;2023-03-23T03:34:43;17.42;;;6.90;;
78404;SDS011;67689;43.592;1.418;2023-03-23T03:37:09;17.25;;;7.30;;
78404;SDS011;67689;43.592;1.418;2023-03-23T03:39:36;15.90;;;7.05;;
78404;SDS011;67689;43.592;1.418;2023-03-23T03:42:02;15.43;;;7.50;;
78404;SDS011;67689;43.592;1.418;2023-03-23T03:44:29;19.17;;;7.28;;
78404;SDS011;67689;43.592;1.418;2023-03-23T03:46:54;12.80;;;6.60;;
78404;SDS011;67689;43.592;1.418;2023-03-23T03:49:20;15.23;;;6.95;;
78404;SDS011;67689;43.592;1.418;2023-03-23T03:51:45;16.15;;;7.05;;
78404;SDS011;67689;43.592;1.418;2023-03-23T03:54:11;17.05;;;6.65;;
78404;SDS011;67689;43.592;1.418;2023-03-23T03:56:36;16.33;;;7.22;;
78404;SDS011;67689;43.592;1.418;2023-03-23T03:59:05;17.45;;;7.05;;
78404;SDS011;67689;43.592;1.418;2023-03-23T04:01:34;14.50;;;6.65;;
78404;SDS011;67689;43.592;1.418;2023-03-23T04:04:01;13.90;;;6.72;;
78404;SDS011;67689;43.592;1.418;2023-03-23T04:06:26;13.10;;;6.25;;
78404;SDS011;67689;43.592;1.418;2023-03-23T04:08:56;14.82;;;6.95;;
78404;SDS011;67689;43.592;1.418;2023-03-23T04:11:24;22.05;;;6.70;;
78404;SDS011;67689;43.592;1.418;2023-03-23T04:13:50;15.85;;;6.78;;
78404;SDS011;67689;43.592;1.418;2023-03-23T04:16:15;16.20;;;6.70;;
78404;SDS011;67689;43.592;1.418;2023-03-23T04:18:42;15.80;;;7.07;;
78404;SDS011;67689;43.592;1.418;2023-03-23T04:21:07;14.55;;;7.53;;
78404;SDS011;67689;43.592;1.418;2023-03-23T04:23:34;18.27;;;7.28;;
78404;SDS011;67689;43.592;1.418;2023-03-23T04:26:00;17.00;;;6.93;;
78404;SDS011;67689;43.592;1.418;2023-03-23T04:28:28;21.67;;;8.40;;
78404;SDS011;67689;43.592;1.418;2023-03-23T04:30:54;16.15;;;7.93;;
78404;SDS011;67689;43.592;1.418;2023-03-23T04:33:21;16.30;;;7.95;;
78404;SDS011;67689;43.592;1.418;2023-03-23T04:35:47;17.33;;;7.57;;
78404;SDS011;67689;43.592;1.418;2023-03-23T04:38:14;16.58;;;7.88;;
78404;SDS011;67689;43.592;1.418;2023-03-23T04:40:41;18.60;;;7.88;;
78404;SDS011;67689;43.592;1.418;2023-03-23T04:43:07;17.83;;;7.75;;
78404;SDS011;67689;43.592;1.418;2023-03-23T04:45:33;17.80;;;8.57;;
78404;SDS011;67689;43.592;1.418;2023-03-23T04:47:59;19.38;;;9.05;;
78404;SDS011;67689;43.592;1.418;2023-03-23T04:50:29;21.63;;;9.95;;
78404;SDS011;67689;43.592;1.418;2023-03-23T04:52:56;18.00;;;8.82;;
78404;SDS011;67689;43.592;1.418;2023-03-23T04:55:22;22.30;;;9.55;;
78404;SDS011;67689;43.592;1.418;2023-03-23T04:57:48;21.08;;;8.75;;
78404;SDS011;67689;43.592;1.418;2023-03-23T05:00:14;21.63;;;9.27;;
78404;SDS011;67689;43.592;1.418;2023-03-23T05:02:41;21.40;;;8.68;;
78404;SDS011;67689;43.592;1.418;2023-03-23T05:05:07;20.08;;;8.93;;
78404;SDS011;67689;43.592;1.418;2023-03-23T05:07:35;20.23;;;8.80;;
78404;SDS011;67689;43.592;1.418;2023-03-23T05:10:01;19.92;;;9.23;;
78404;SDS011;67689;43.592;1.418;2023-03-23T05:12:27;16.00;;;9.18;;
78404;SDS011;67689;43.592;1.418;2023-03-23T05:14:52;22.85;;;9.63;;
78404;SDS011;67689;43.592;1.418;2023-03-23T05:17:17;21.00;;;9.23;;
78404;SDS011;67689;43.592;1.418;2023-03-23T05:19:43;21.58;;;9.55;;
78404;SDS011;67689;43.592;1.418;2023-03-23T05:22:12;17.90;;;8.73;;
78404;SDS011;67689;43.592;1.418;2023-03-23T05:24:40;17.20;;;8.98;;
78404;SDS011;67689;43.592;1.418;2023-03-23T05:27:07;19.33;;;8.68;;
78404;SDS011;67689;43.592;1.418;2023-03-23T05:29:36;19.33;;;8.82;;
78404;SDS011;67689;43.592;1.418;2023-03-23T05:32:02;22.33;;;9.15;;
78404;SDS011;67689;43.592;1.418;2023-03-23T05:34:29;24.50;;;8.75;;
78404;SDS011;67689;43.592;1.418;2023-03-23T05:36:57;25.10;;;10.30;;
78404;SDS011;67689;43.592;1.418;2023-03-23T05:39:23;21.63;;;9.15;;
78404;SDS011;67689;43.592;1.418;2023-03-23T05:41:48;20.25;;;9.18;;
78404;SDS011;67689;43.592;1.418;2023-03-23T05:44:13;23.08;;;9.35;;
78404;SDS011;67689;43.592;1.418;2023-03-23T05:46:39;21.73;;;9.05;;
78404;SDS011;67689;43.592;1.418;2023-03-23T05:49:05;21.83;;;10.25;;
78404;SDS011;67689;43.592;1.418;2023-03-23T05:51:30;22.85;;;9.73;;
78404;SDS011;67689;43.592;1.418;2023-03-23T05:53:56;18.85;;;9.48;;
78404;SDS011;67689;43.592;1.418;2023-03-23T05:56:22;20.20;;;9.55;;
78404;SDS011;67689;43.592;1.418;2023-03-23T05:58:47;18.73;;;9.02;;
78404;SDS011;67689;43.592;1.418;2023-03-23T06:01:12;20.08;;;9.15;;
78404;SDS011;67689;43.592;1.418;2023-03-23T06:03:39;19.58;;;9.60;;
78404;SDS011;67689;43.592;1.418;2023-03-23T06:06:04;23.25;;;9.27;;
78404;SDS011;67689;43.592;1.418;2023-03-23T06:08:30;19.58;;;9.55;;
78404;SDS011;67689;43.592;1.418;2023-03-23T06:10:56;23.27;;;9.70;;
78404;SDS011;67689;43.592;1.418;2023-03-23T06:13:22;22.05;;;9.82;;
78404;SDS011;67689;43.592;1.418;2023-03-23T06:15:48;20.20;;;9.98;;
78404;SDS011;67689;43.592;1.418;2023-03-23T06:18:13;17.23;;;9.02;;
78404;SDS011;67689;43.592;1.418;2023-03-23T06:20:39;23.05;;;9.35;;
78404;SDS011;67689;43.592;1.418;2023-03-23T06:23:05;17.67;;;9.38;;
78404;SDS011;67689;43.592;1.418;2023-03-23T06:25:31;17.67;;;8.95;;
78404;SDS011;67689;43.592;1.418;2023-03-23T06:27:58;19.42;;;9.20;;
78404;SDS011;67689;43.592;1.418;2023-03-23T06:30:23;19.92;;;8.82;;
78404;SDS011;67689;43.592;1.418;2023-03-23T06:32:48;22.67;;;9.48;;
78404;SDS011;67689;43.592;1.418;2023-03-23T06:35:15;21.45;;;9.65;;
78404;SDS011;67689;43.592;1.418;2023-03-23T06:37:41;15.32;;;8.48;;
78404;SDS011;67689;43.592;1.418;2023-03-23T06:40:07;21.52;;;9.02;;
78404;SDS011;67689;43.592;1.418;2023-03-23T06:42:34;17.50;;;8.60;;
78404;SDS011;67689;43.592;1.418;2023-03-23T06:44:59;17.63;;;9.00;;
78404;SDS011;67689;43.592;1.418;2023-03-23T06:47:29;20.85;;;8.57;;
78404;SDS011;67689;43.592;1.418;2023-03-23T06:49:55;19.77;;;8.80;;
78404;SDS011;67689;43.592;1.418;2023-03-23T06:52:21;17.02;;;8.35;;
78404;SDS011;67689;43.592;1.418;2023-03-23T06:54:48;17.17;;;8.73;;
78404;SDS011;67689;43.592;1.418;2023-03-23T06:57:14;17.38;;;8.60;;
78404;SDS011;67689;43.592;1.418;2023-03-23T06:59:39;17.38;;;7.90;;
78404;SDS011;67689;43.592;1.418;2023-03-23T07:02:07;14.70;;;7.70;;
78404;SDS011;67689;43.592;1.418;2023-03-23T07:04:34;19.85;;;8.43;;
78404;SDS011;67689;43.592;1.418;2023-03-23T07:07:00;20.05;;;8.18;;
78404;SDS011;67689;43.592;1.418;2023-03-23T07:09:26;18.23;;;7.82;;
78404;SDS011;67689;43.592;1.418;2023-03-23T07:11:51;18.73;;;8.40;;
78404;SDS011;67689;43.592;1.418;2023-03-23T07:14:17;20.25;;;8.63;;
78404;SDS011;67689;43.592;1.418;2023-03-23T07:16:42;18.05;;;8.57;;
78404;SDS011;67689;43.592;1.418;2023-03-23T07:19:08;17.05;;;7.63;;
78404;SDS011;67689;43.592;1.418;2023-03-23T07:21:33;19.58;;;9.40;;
78404;SDS011;67689;43.592;1.418;2023-03-23T07:23:58;20.23;;;8.70;;
78404;SDS011;67689;43.592;1.418;2023-03-23T07:26:24;22.95;;;8.05;;
78404;SDS011;67689;43.592;1.418;2023-03-23T07:28:49;19.77;;;8.35;;
78404;SDS011;67689;43.592;1.418;2023-03-23T07:31:15;18.15;;;8.50;;
78404;SDS011;67689;43.592;1.418;2023-03-23T07:33:40;17.45;;;8.02;;
78404;SDS011;67689;43.592;1.418;2023-03-23T07:36:06;19.13;;;9.40;;
78404;SDS011;67689;43.592;1.418;2023-03-23T07:38:33;18.98;;;8.93;;
78404;SDS011;67689;43.592;1.418;2023-03-23T07:40:58;18.27;;;9.48;;
78404;SDS011;67689;43.592;1.418;2023-03-23T07:43:23;18.90;;;9.27;;
78404;SDS011;67689;43.592;1.418;2023-03-23T07:45:49;20.50;;;9.45;;
78404;SDS011;67689;43.592;1.418;2023-03-23T07:48:14;22.27;;;9.35;;
78404;SDS011;67689;43.592;1.418;2023-03-23T07:50:40;19.23;;;9.07;;
78404;SDS011;67689;43.592;1.418;2023-03-23T07:53:05;19.10;;;9.00;;
78404;SDS011;67689;43.592;1.418;2023-03-23T07:55:32;20.80;;;9.32;;
78404;SDS011;67689;43.592;1.418;2023-03-23T07:57:57;18.83;;;8.63;;
78404;SDS011;67689;43.592;1.418;2023-03-23T08:00:23;18.77;;;8.90;;
78404;SDS011;67689;43.592;1.418;2023-03-23T08:02:56;19.10;;;8.73;;
78404;SDS011;67689;43.592;1.418;2023-03-23T08:05:22;19.63;;;8.80;;
78404;SDS011;67689;43.592;1.418;2023-03-23T08:07:50;20.10;;;8.88;;
78404;SDS011;67689;43.592;1.418;2023-03-23T08:10:17;20.48;;;9.07;;
78404;SDS011;67689;43.592;1.418;2023-03-23T08:12:43;19.20;;;9.10;;
78404;SDS011;67689;43.592;1.418;2023-03-23T08:15:10;16.35;;;8.73;;
78404;SDS011;67689;43.592;1.418;2023-03-23T08:17:42;19.92;;;8.77;;
78404;SDS011;67689;43.592;1.418;2023-03-23T08:20:09;17.00;;;7.90;;
78404;SDS011;67689;43.592;1.418;2023-03-23T08:22:42;16.52;;;8.18;;
78404;SDS011;67689;43.592;1.418;2023-03-23T08:25:10;20.35;;;8.23;;
78404;SDS011;67689;43.592;1.418;2023-03-23T08:27:36;16.58;;;8.52;;
78404;SDS011;67689;43.592;1.418;2023-03-23T08:30:03;20.63;;;8.38;;
78404;SDS011;67689;43.592;1.418;2023-03-23T08:32:30;19.17;;;8.45;;
78404;SDS011;67689;43.592;1.418;2023-03-23T08:34:56;17.42;;;8.30;;
78404;SDS011;67689;43.592;1.418;2023-03-23T08:37:22;17.77;;;7.55;;
78404;SDS011;67689;43.592;1.418;2023-03-23T08:39:50;15.48;;;8.30;;
78404;SDS011;67689;43.592;1.418;2023-03-23T08:42:16;20.42;;;8.20;;
78404;SDS011;67689;43.592;1.418;2023-03-23T08:44:43;15.85;;;7.88;;
78404;SDS011;67689;43.592;1.418;2023-03-23T08:47:09;14.48;;;7.43;;
78404;SDS011;67689;43.592;1.418;2023-03-23T08:49:34;19.80;;;7.50;;
78404;SDS011;67689;43.592;1.418;2023-03-23T08:52:00;15.82;;;7.50;;
78404;SDS011;67689;43.592;1.418;2023-03-23T08:54:25;16.23;;;7.28;;
78404;SDS011;67689;43.592;1.418;2023-03-23T08:56:51;14.65;;;7.30;;
78404;SDS011;67689;43.592;1.418;2023-03-23T08:59:17;15.07;;;7.40;;
78404;SDS011;67689;43.592;1.418;2023-03-23T09:01:43;14.15;;;7.95;;
78404;SDS011;67689;43.592;1.418;2023-03-23T09:04:08;18.50;;;7.70;;
78404;SDS011;67689;43.592;1.418;2023-03-23T09:06:35;12.82;;;6.72;;
78404;SDS011;67689;43.592;1.418;2023-03-23T09:09:01;16.67;;;6.88;;
78404;SDS011;67689;43.592;1.418;2023-03-23T09:11:31;13.88;;;6.53;;
78404;SDS011;67689;43.592;1.418;2023-03-23T09:14:00;13.02;;;6.65;;
78404;SDS011;67689;43.592;1.418;2023-03-23T09:16:27;13.13;;;6.72;;
78404;SDS011;67689;43.592;1.418;2023-03-23T09:18:53;13.45;;;6.53;;
78404;SDS011;67689;43.592;1.418;2023-03-23T09:21:18;13.57;;;6.53;;
78404;SDS011;67689;43.592;1.418;2023-03-23T09:23:44;14.48;;;6.55;;
78404;SDS011;67689;43.592;1.418;2023-03-23T09:26:10;14.55;;;6.80;;
78404;SDS011;67689;43.592;1.418;2023-03-23T09:28:36;12.27;;;6.20;;
78404;SDS011;67689;43.592;1.418;2023-03-23T09:31:01;13.80;;;6.57;;
78404;SDS011;67689;43.592;1.418;2023-03-23T09:33:26;11.95;;;6.70;;
78404;SDS011;67689;43.592;1.418;2023-03-23T09:35:53;13.40;;;6.60;;
78404;SDS011;67689;43.592;1.418;2023-03-23T09:38:19;12.85;;;6.47;;
78404;SDS011;67689;43.592;1.418;2023-03-23T09:41:34;15.23;;;6.43;;
78404;SDS011;67689;43.592;1.418;2023-03-23T09:46:54;14.10;;;6.93;;
78404;SDS011;67689;43.592;1.418;2023-03-23T09:49:24;14.10;;;6.32;;
78404;SDS011;67689;43.592;1.418;2023-03-23T09:52:14;16.05;;;7.30;;
78404;SDS011;67689;43.592;1.418;2023-03-23T09:54:42;12.98;;;7.00;;
78404;SDS011;67689;43.592;1.418;2023-03-23T09:57:27;15.18;;;6.80;;
78404;SDS011;67689;43.592;1.418;2023-03-23T09:59:58;13.98;;;6.90;;
78404;SDS011;67689;43.592;1.418;2023-03-23T10:02:34;16.00;;;6.78;;
78404;SDS011;67689;43.592;1.418;2023-03-23T10:05:26;11.40;;;6.30;;
78404;SDS011;67689;43.592;1.418;2023-03-23T10:07:52;13.60;;;6.72;;
78404;SDS011;67689;43.592;1.418;2023-03-23T10:10:18;13.98;;;6.50;;
78404;SDS011;67689;43.592;1.418;2023-03-23T10:15:29;13.98;;;6.15;;
78404;SDS011;67689;43.592;1.418;2023-03-23T10:23:23;11.05;;;5.80;;
78404;SDS011;67689;43.592;1.418;2023-03-23T10:26:21;13.50;;;6.10;;
78404;SDS011;67689;43.592;1.418;2023-03-23T10:34:53;12.95;;;6.18;;
78404;SDS011;67689;43.592;1.418;2023-03-23T10:37:22;11.68;;;6.22;;
78404;SDS011;67689;43.592;1.418;2023-03-23T10:39:59;12.02;;;5.82;;
78404;SDS011;67689;43.592;1.418;2023-03-23T10:42:26;11.27;;;5.78;;
78404;SDS011;67689;43.592;1.418;2023-03-23T10:44:54;10.55;;;5.82;;
78404;SDS011;67689;43.592;1.418;2023-03-23T10:47:21;10.82;;;5.63;;
78404;SDS011;67689;43.592;1.418;2023-03-23T10:52:46;12.77;;;6.00;;
78404;SDS011;67689;43.592;1.418;2023-03-23T10:57:31;9.68;;;5.88;;
78404;SDS011;67689;43.592;1.418;2023-03-23T11:02:38;12.15;;;6.10;;
78404;SDS011;67689;43.592;1.418;2023-03-23T11:05:14;13.65;;;6.50;;
78404;SDS011;67689;43.592;1.418;2023-03-23T11:07:42;13.13;;;6.78;;
78404;SDS011;67689;43.592;1.418;2023-03-23T11:10:20;12.57;;;6.38;;
78404;SDS011;67689;43.592;1.418;2023-03-23T11:12:49;13.18;;;6.90;;
78404;SDS011;67689;43.592;1.418;2023-03-23T11:15:23;13.27;;;6.15;;
78404;SDS011;67689;43.592;1.418;2023-03-23T11:18:03;11.00;;;6.90;;
78404;SDS011;67689;43.592;1.418;2023-03-23T11:20:34;18.10;;;6.90;;
78404;SDS011;67689;43.592;1.418;2023-03-23T11:23:09;17.08;;;7.60;;
78404;SDS011;67689;43.592;1.418;2023-03-23T11:28:28;15.93;;;7.25;;
78404;SDS011;67689;43.592;1.418;2023-03-23T11:30:56;15.10;;;7.32;;
78404;SDS011;67689;43.592;1.418;2023-03-23T11:33:23;15.65;;;7.35;;
78404;SDS011;67689;43.592;1.418;2023-03-23T11:35:51;13.48;;;7.47;;
78404;SDS011;67689;43.592;1.418;2023-03-23T11:38:18;17.00;;;7.97;;
78404;SDS011;67689;43.592;1.418;2023-03-23T11:40:50;13.85;;;7.90;;
78404;SDS011;67689;43.592;1.418;2023-03-23T11:43:19;13.85;;;7.47;;
78404;SDS011;67689;43.592;1.418;2023-03-23T11:58:58;13.25;;;7.20;;
78404;SDS011;67689;43.592;1.418;2023-03-23T12:12:30;17.67;;;8.70;;
78404;SDS011;67689;43.592;1.418;2023-03-23T12:47:51;10.50;;;6.22;;
78404;SDS011;67689;43.592;1.418;2023-03-23T12:50:31;12.85;;;6.43;;
78404;SDS011;67689;43.592;1.418;2023-03-23T12:58:09;14.15;;;7.30;;
78404;SDS011;67689;43.592;1.418;2023-03-23T13:05:57;12.93;;;6.55;;
78404;SDS011;67689;43.592;1.418;2023-03-23T13:08:32;13.93;;;6.53;;
78404;SDS011;67689;43.592;1.418;2023-03-23T13:11:03;16.40;;;6.13;;
78404;SDS011;67689;43.592;1.418;2023-03-23T13:24:23;14.73;;;6.75;;
78404;SDS011;67689;43.592;1.418;2023-03-23T13:26:52;14.73;;;6.60;;
78404;SDS011;67689;43.592;1.418;2023-03-23T13:29:21;17.92;;;6.85;;
78404;SDS011;67689;43.592;1.418;2023-03-23T13:31:49;16.73;;;7.15;;
78404;SDS011;67689;43.592;1.418;2023-03-23T13:34:25;13.07;;;6.60;;
78404;SDS011;67689;43.592;1.418;2023-03-23T13:36:55;14.60;;;6.80;;
78404;SDS011;67689;43.592;1.418;2023-03-23T13:39:26;14.57;;;6.70;;
78404;SDS011;67689;43.592;1.418;2023-03-23T13:49:50;15.10;;;6.80;;
78404;SDS011;67689;43.592;1.418;2023-03-23T14:05:41;14.07;;;7.10;;
78404;SDS011;67689;43.592;1.418;2023-03-23T14:10:53;13.55;;;6.20;;
78404;SDS011;67689;43.592;1.418;2023-03-23T14:13:24;16.60;;;6.03;;
78404;SDS011;67689;43.592;1.418;2023-03-23T14:16:04;12.90;;;6.20;;
78404;SDS011;67689;43.592;1.418;2023-03-23T14:18:39;12.77;;;6.20;;
78404;SDS011;67689;43.592;1.418;2023-03-23T14:21:06;14.15;;;5.75;;
78404;SDS011;67689;43.592;1.418;2023-03-23T14:23:39;15.13;;;6.93;;
78404;SDS011;67689;43.592;1.418;2023-03-23T14:26:09;13.45;;;6.40;;
78404;SDS011;67689;43.592;1.418;2023-03-23T15:24:32;14.43;;;7.72;;
78404;SDS011;67689;43.592;1.418;2023-03-23T15:29:49;16.73;;;7.20;;
78404;SDS011;67689;43.592;1.418;2023-03-23T15:32:59;14.95;;;7.60;;
78404;SDS011;67689;43.592;1.418;2023-03-23T15:35:16;20.40;;;7.57;;
78404;SDS011;67689;43.592;1.418;2023-03-23T15:37:48;14.25;;;6.50;;
78404;SDS011;67689;43.592;1.418;2023-03-23T15:40:17;15.93;;;6.97;;
78404;SDS011;67689;43.592;1.418;2023-03-23T15:42:47;19.15;;;7.53;;
78404;SDS011;67689;43.592;1.418;2023-03-23T15:50:12;20.33;;;6.75;;
78404;SDS011;67689;43.592;1.418;2023-03-23T15:52:40;22.05;;;7.43;;
78404;SDS011;67689;43.592;1.418;2023-03-23T15:55:18;18.40;;;6.97;;
78404;SDS011;67689;43.592;1.418;2023-03-23T15:57:46;11.93;;;6.40;;
78404;SDS011;67689;43.592;1.418;2023-03-23T16:00:11;16.38;;;6.25;;
78404;SDS011;67689;43.592;1.418;2023-03-23T16:02:37;15.27;;;5.85;;
78404;SDS011;67689;43.592;1.418;2023-03-23T16:05:03;16.63;;;6.60;;
78404;SDS011;67689;43.592;1.418;2023-03-23T16:07:29;17.08;;;6.57;;
78404;SDS011;67689;43.592;1.418;2023-03-23T16:09:54;15.32;;;5.93;;
78404;SDS011;67689;43.592;1.418;2023-03-23T16:12:20;14.55;;;6.57;;
78404;SDS011;67689;43.592;1.418;2023-03-23T16:14:45;15.98;;;6.72;;
78404;SDS011;67689;43.592;1.418;2023-03-23T16:17:17;17.27;;;6.20;;
78404;SDS011;67689;43.592;1.418;2023-03-23T16:19:43;13.35;;;6.00;;
78404;SDS011;67689;43.592;1.418;2023-03-23T16:22:09;17.08;;;6.55;;
78404;SDS011;67689;43.592;1.418;2023-03-23T16:24:34;12.63;;;6.70;;
78404;SDS011;67689;43.592;1.418;2023-03-23T16:27:00;15.80;;;6.30;;
78404;SDS011;67689;43.592;1.418;2023-03-23T16:29:25;13.82;;;5.88;;
78404;SDS011;67689;43.592;1.418;2023-03-23T16:31:51;21.30;;;6.07;;
78404;SDS011;67689;43.592;1.418;2023-03-23T16:34:17;15.48;;;6.55;;
78404;SDS011;67689;43.592;1.418;2023-03-23T16:36:42;17.65;;;5.78;;
78404;SDS011;67689;43.592;1.418;2023-03-23T16:39:09;13.27;;;5.80;;
78404;SDS011;67689;43.592;1.418;2023-03-23T16:41:36;19.85;;;5.85;;
78404;SDS011;67689;43.592;1.418;2023-03-23T16:44:01;17.05;;;6.18;;
78404;SDS011;67689;43.592;1.418;2023-03-23T16:46:26;14.93;;;5.65;;
78404;SDS011;67689;43.592;1.418;2023-03-23T16:48:53;16.63;;;5.90;;
78404;SDS011;67689;43.592;1.418;2023-03-23T16:51:19;16.77;;;6.05;;
78404;SDS011;67689;43.592;1.418;2023-03-23T16:53:44;12.23;;;5.82;;
78404;SDS011;67689;43.592;1.418;2023-03-23T16:56:10;15.77;;;6.03;;
78404;SDS011;67689;43.592;1.418;2023-03-23T16:58:35;17.30;;;5.90;;
78404;SDS011;67689;43.592;1.418;2023-03-23T17:01:01;16.05;;;6.47;;
78404;SDS011;67689;43.592;1.418;2023-03-23T17:03:27;22.52;;;6.25;;
78404;SDS011;67689;43.592;1.418;2023-03-23T17:05:52;17.00;;;5.80;;
78404;SDS011;67689;43.592;1.418;2023-03-23T17:08:18;17.58;;;6.00;;
78404;SDS011;67689;43.592;1.418;2023-03-23T17:10:44;13.73;;;5.15;;
78404;SDS011;67689;43.592;1.418;2023-03-23T17:13:10;15.07;;;5.80;;
78404;SDS011;67689;43.592;1.418;2023-03-23T17:15:37;17.38;;;5.88;;
78404;SDS011;67689;43.592;1.418;2023-03-23T17:18:03;18.38;;;5.80;;
78404;SDS011;67689;43.592;1.418;2023-03-23T17:20:29;16.52;;;5.57;;
78404;SDS011;67689;43.592;1.418;2023-03-23T17:22:55;20.38;;;6.10;;
78404;SDS011;67689;43.592;1.418;2023-03-23T17:25:20;13.90;;;6.25;;
78404;SDS011;67689;43.592;1.418;2023-03-23T17:27:46;14.75;;;5.65;;
78404;SDS011;67689;43.592;1.418;2023-03-23T17:30:11;17.30;;;5.80;;
78404;SDS011;67689;43.592;1.418;2023-03-23T17:32:37;16.80;;;6.32;;
78404;SDS011;67689;43.592;1.418;2023-03-23T17:35:02;16.00;;;6.10;;
78404;SDS011;67689;43.592;1.418;2023-03-23T17:37:29;15.38;;;6.07;;
78404;SDS011;67689;43.592;1.418;2023-03-23T17:39:55;17.92;;;5.50;;
78404;SDS011;67689;43.592;1.418;2023-03-23T17:42:20;15.75;;;5.80;;
78404;SDS011;67689;43.592;1.418;2023-03-23T17:44:46;17.90;;;5.85;;
78404;SDS011;67689;43.592;1.418;2023-03-23T17:47:11;18.58;;;5.53;;
78404;SDS011;67689;43.592;1.418;2023-03-23T17:49:37;15.98;;;6.13;;
78404;SDS011;67689;43.592;1.418;2023-03-23T17:52:02;16.92;;;5.68;;
78404;SDS011;67689;43.592;1.418;2023-03-23T17:54:28;18.00;;;5.90;;
78404;SDS011;67689;43.592;1.418;2023-03-23T17:56:55;20.10;;;6.10;;
78404;SDS011;67689;43.592;1.418;2023-03-23T17:59:22;17.67;;;6.28;;
78404;SDS011;67689;43.592;1.418;2023-03-23T18:01:48;18.52;;;6.50;;
78404;SDS011;67689;43.592;1.418;2023-03-23T18:04:14;19.15;;;7.38;;
78404;SDS011;67689;43.592;1.418;2023-03-23T18:06:40;17.00;;;6.45;;
78404;SDS011;67689;43.592;1.418;2023-03-23T18:09:05;21.40;;;6.97;;
78404;SDS011;67689;43.592;1.418;2023-03-23T18:11:31;15.50;;;6.28;;
78404;SDS011;67689;43.592;1.418;2023-03-23T18:13:56;16.67;;;7.07;;
78404;SDS011;67689;43.592;1.418;2023-03-23T18:16:22;23.67;;;7.63;;
78404;SDS011;67689;43.592;1.418;2023-03-23T18:18:47;21.35;;;7.15;;
78404;SDS011;67689;43.592;1.418;2023-03-23T18:21:13;17.73;;;7.30;;
78404;SDS011;67689;43.592;1.418;2023-03-23T18:23:38;17.63;;;7.25;;